Time;durP1;ratioP1;P1;durP2;ratioP2;P2;SDS_P1;SDS_P2;PMS_P1;PMS_P2;Temp;Humidity;BMP_temperature;BMP_pressure;BME280_temperature;BME280_humidity;BME280_pressure;Samples;Min_cycle;Max_cycle;Signal;HPM_P1;HPM_P2
2023/07/11 00:00:15;;;;;;;13.85;8.85;;;22.20;99.90;;;;;;5029410;28;20102;-79
2023/07/11 00:02:42;;;;;;;14.77;10.02;;;22.20;99.90;;;;;;5032411;28;20060;-79
2023/07/11 00:05:08;;;;;;;14.45;9.38;;;22.20;99.90;;;;;;5031596;28;20034;-78
2023/07/11 00:07:34;;;;;;;14.38;9.82;;;22.10;99.90;;;;;;5031851;28;20022;-78
2023/07/11 00:10:00;;;;;;;14.40;9.05;;;22.20;99.90;;;;;;5031231;28;20363;-78
2023/07/11 00:12:28;;;;;;;14.00;9.02;;;22.10;99.90;;;;;;5031943;28;20028;-79
2023/07/11 00:14:56;;;;;;;15.32;9.48;;;22.20;99.90;;;;;;5032054;28;20021;-80
2023/07/11 00:17:22;;;;;;;13.48;9.10;;;22.10;99.90;;;;;;5031782;28;20538;-78
2023/07/11 00:19:51;;;;;;;14.20;10.05;;;22.20;99.90;;;;;;4997486;28;20029;-78
2023/07/11 00:22:17;;;;;;;16.75;10.48;;;22.10;99.90;;;;;;5031791;28;20502;-78
2023/07/11 00:24:43;;;;;;;18.27;10.80;;;22.10;99.90;;;;;;5018656;28;20026;-79
2023/07/11 00:27:11;;;;;;;17.05;10.88;;;22.10;99.90;;;;;;5030779;28;20110;-80
2023/07/11 00:29:37;;;;;;;13.45;9.45;;;22.20;99.90;;;;;;5031953;28;20107;-79
2023/07/11 00:32:04;;;;;;;16.05;9.60;;;22.10;99.90;;;;;;5014064;28;20022;-79
2023/07/11 00:34:30;;;;;;;14.13;9.65;;;22.10;99.90;;;;;;5013053;28;20068;-79
2023/07/11 00:36:56;;;;;;;15.82;10.65;;;22.10;99.90;;;;;;5032054;28;20110;-77
2023/07/11 00:39:22;;;;;;;13.88;10.18;;;22.00;99.90;;;;;;5032018;28;20031;-78
2023/07/11 00:41:48;;;;;;;16.88;9.90;;;22.00;99.90;;;;;;4997945;28;20030;-79
2023/07/11 00:44:16;;;;;;;18.30;10.25;;;22.00;99.90;;;;;;5013399;28;20041;-80
2023/07/11 00:46:43;;;;;;;15.45;10.82;;;22.00;99.90;;;;;;4997161;28;20033;-79
2023/07/11 00:49:10;;;;;;;15.88;10.07;;;22.00;99.90;;;;;;5008855;28;20052;-80
2023/07/11 00:51:45;;;;;;;16.60;9.73;;;22.00;99.90;;;;;;4993892;28;20546;-80
2023/07/11 00:54:15;;;;;;;16.92;11.05;;;22.00;99.90;;;;;;4994324;28;20508;-78
2023/07/11 00:56:47;;;;;;;15.70;9.65;;;22.00;99.90;;;;;;5024743;28;20021;-79
2023/07/11 00:59:16;;;;;;;13.75;9.32;;;22.00;99.90;;;;;;5006744;28;20022;-79
2023/07/11 01:01:48;;;;;;;15.75;10.55;;;22.00;99.90;;;;;;5030938;28;20072;-78
2023/07/11 01:04:15;;;;;;;17.75;11.02;;;21.90;99.90;;;;;;5013705;28;20045;-78
2023/07/11 01:06:41;;;;;;;15.05;10.30;;;21.90;99.90;;;;;;5031253;28;20548;-79
2023/07/11 01:09:08;;;;;;;17.05;10.95;;;21.90;99.90;;;;;;5013663;28;20087;-77
2023/07/11 01:11:53;;;;;;;17.02;11.60;;;22.00;99.90;;;;;;5016734;28;20446;-79
2023/07/11 01:14:19;;;;;;;17.55;12.60;;;21.90;99.90;;;;;;5019999;28;20034;-79
2023/07/11 01:16:45;;;;;;;16.98;11.45;;;21.90;99.90;;;;;;5012229;28;20083;-78
2023/07/11 01:19:12;;;;;;;20.02;11.48;;;21.80;99.90;;;;;;5020140;28;20029;-77
2023/07/11 01:21:38;;;;;;;16.20;9.90;;;21.80;99.90;;;;;;5029932;28;20033;-78
2023/07/11 01:24:04;;;;;;;18.88;12.43;;;21.80;99.90;;;;;;5031548;28;20041;-79
2023/07/11 01:26:31;;;;;;;16.92;11.57;;;21.80;99.90;;;;;;5031056;28;20039;-78
2023/07/11 01:28:57;;;;;;;22.08;12.55;;;21.70;99.90;;;;;;5031110;28;20394;-79
2023/07/11 01:31:23;;;;;;;16.83;11.20;;;21.70;99.90;;;;;;5006613;28;20074;-78
2023/07/11 01:33:49;;;;;;;15.75;11.38;;;21.80;99.90;;;;;;5031878;28;20405;-78
2023/07/11 01:36:15;;;;;;;14.32;10.77;;;21.70;99.90;;;;;;5031395;28;20176;-78
2023/07/11 01:38:41;;;;;;;18.42;10.82;;;21.70;99.90;;;;;;5014554;28;20040;-78
2023/07/11 01:41:08;;;;;;;19.00;11.60;;;21.60;99.90;;;;;;5018086;28;20028;-78
2023/07/11 01:43:34;;;;;;;15.82;11.07;;;21.60;99.90;;;;;;5035528;28;20128;-78
2023/07/11 01:46:00;;;;;;;16.35;11.15;;;21.60;99.90;;;;;;5035418;28;20097;-79
2023/07/11 01:48:28;;;;;;;18.30;11.07;;;21.60;99.90;;;;;;5035481;28;20536;-77
2023/07/11 01:50:55;;;;;;;17.83;11.60;;;21.60;99.90;;;;;;5017626;28;20489;-78
2023/07/11 01:53:21;;;;;;;16.23;11.38;;;21.60;99.90;;;;;;5035198;28;20025;-78
2023/07/11 01:55:57;;;;;;;13.93;11.10;;;21.60;99.90;;;;;;5035666;28;20032;-79
2023/07/11 01:58:24;;;;;;;17.27;11.73;;;21.50;99.90;;;;;;5017604;28;20029;-78
2023/07/11 02:00:50;;;;;;;18.48;12.20;;;21.50;99.90;;;;;;5005090;28;20124;-76
2023/07/11 02:03:16;;;;;;;16.42;11.80;;;21.60;99.90;;;;;;5020381;28;20116;-79
2023/07/11 02:05:42;;;;;;;16.65;11.25;;;21.50;99.90;;;;;;5031124;28;20112;-79
2023/07/11 02:08:08;;;;;;;17.23;11.70;;;21.50;99.90;;;;;;5032732;28;20450;-77
2023/07/11 02:10:34;;;;;;;15.57;10.70;;;21.50;99.90;;;;;;5013808;28;20026;-79
2023/07/11 02:13:00;;;;;;;16.98;11.88;;;21.40;99.90;;;;;;5021414;28;20471;-77
2023/07/11 02:15:30;;;;;;;17.05;11.73;;;21.40;99.90;;;;;;5008896;28;20456;-76
2023/07/11 02:17:57;;;;;;;16.92;10.30;;;21.40;99.90;;;;;;5031983;28;20045;-79
2023/07/11 02:20:23;;;;;;;17.65;11.10;;;21.30;99.90;;;;;;5011198;28;20032;-79
2023/07/11 02:22:49;;;;;;;17.23;11.15;;;21.20;99.90;;;;;;5010983;28;20045;-77
2023/07/11 02:25:15;;;;;;;21.80;13.13;;;21.20;99.90;;;;;;5026803;28;20501;-79
2023/07/11 02:27:41;;;;;;;17.73;12.63;;;21.10;99.90;;;;;;5022112;28;20079;-80
2023/07/11 02:30:07;;;;;;;17.95;11.23;;;21.20;99.90;;;;;;5014413;28;20102;-77
2023/07/11 02:32:33;;;;;;;17.40;11.45;;;21.20;99.90;;;;;;5020404;28;20021;-78
2023/07/11 02:34:59;;;;;;;14.65;10.95;;;21.20;99.90;;;;;;5003518;28;20192;-78
2023/07/11 02:37:24;;;;;;;16.95;11.43;;;21.20;99.90;;;;;;5013589;28;20029;-81
2023/07/11 02:39:50;;;;;;;15.07;10.63;;;21.10;99.90;;;;;;5017988;28;20034;-78
2023/07/11 02:42:16;;;;;;;17.73;11.30;;;21.10;99.90;;;;;;5019975;28;20435;-81
2023/07/11 02:44:42;;;;;;;19.15;12.25;;;21.00;99.90;;;;;;5015668;28;20120;-79
2023/07/11 02:47:08;;;;;;;16.40;12.20;;;21.00;99.90;;;;;;5018642;28;20467;-80
2023/07/11 02:49:38;;;;;;;15.23;11.70;;;21.00;99.90;;;;;;5028914;28;20468;-80
2023/07/11 02:52:05;;;;;;;17.65;12.00;;;21.00;99.90;;;;;;5031551;28;20471;-79
2023/07/11 02:54:31;;;;;;;21.40;11.82;;;21.00;99.90;;;;;;5034531;28;20049;-80
2023/07/11 02:56:57;;;;;;;15.27;10.93;;;21.00;99.90;;;;;;5029144;28;20056;-79
2023/07/11 02:59:23;;;;;;;19.40;11.32;;;21.00;99.90;;;;;;5031641;28;20025;-80
2023/07/11 03:01:49;;;;;;;19.60;12.00;;;21.00;99.90;;;;;;5032597;28;20041;-78
2023/07/11 03:04:15;;;;;;;17.40;10.68;;;21.00;99.90;;;;;;5026682;28;20116;-77
2023/07/11 03:06:40;;;;;;;18.13;11.48;;;21.00;99.90;;;;;;5034051;28;20029;-78
2023/07/11 03:09:06;;;;;;;19.40;11.27;;;21.00;99.90;;;;;;5033968;28;20091;-79
2023/07/11 03:11:32;;;;;;;15.70;11.43;;;21.00;99.90;;;;;;5033893;28;20017;-77
2023/07/11 03:13:59;;;;;;;18.13;11.52;;;20.90;99.90;;;;;;5033170;28;20060;-79
2023/07/11 03:16:25;;;;;;;22.85;12.60;;;20.90;99.90;;;;;;5033369;28;20030;-79
2023/07/11 03:18:50;;;;;;;31.23;13.68;;;20.90;99.90;;;;;;5025541;28;20088;-80
2023/07/11 03:21:16;;;;;;;30.23;14.48;;;20.90;99.90;;;;;;5029737;28;20021;-79
2023/07/11 03:23:42;;;;;;;26.40;12.68;;;20.80;99.90;;;;;;4999738;28;20042;-78
2023/07/11 03:26:08;;;;;;;30.10;13.30;;;20.90;99.90;;;;;;5015535;28;20037;-77
2023/07/11 03:28:34;;;;;;;20.25;12.32;;;21.00;99.90;;;;;;5016350;28;20056;-78
2023/07/11 03:30:59;;;;;;;23.75;13.82;;;21.00;99.90;;;;;;5033588;28;20094;-79
2023/07/11 03:33:25;;;;;;;20.77;13.20;;;21.00;99.90;;;;;;5016035;28;20041;-79
2023/07/11 03:35:52;;;;;;;26.90;12.93;;;21.00;99.90;;;;;;5033118;28;20568;-78
2023/07/11 03:38:19;;;;;;;18.88;12.07;;;20.90;99.90;;;;;;5033907;28;20048;-79
2023/07/11 03:40:48;;;;;;;18.33;12.07;;;21.00;99.90;;;;;;5034381;28;20042;-79
2023/07/11 03:43:19;;;;;;;18.67;11.77;;;21.00;99.90;;;;;;5016478;28;20371;-79
2023/07/11 03:45:48;;;;;;;24.13;12.15;;;21.10;99.90;;;;;;5010349;28;20487;-79
2023/07/11 03:48:14;;;;;;;22.05;12.10;;;21.20;99.90;;;;;;5023822;28;20352;-80
2023/07/11 03:50:40;;;;;;;17.58;10.93;;;21.30;99.90;;;;;;5030123;28;20018;-79
2023/07/11 03:53:06;;;;;;;24.30;12.15;;;21.50;99.90;;;;;;5032997;28;20437;-78
2023/07/11 03:55:32;;;;;;;19.33;11.43;;;22.00;99.90;;;;;;5033280;28;20045;-79
2023/07/11 03:57:58;;;;;;;22.73;13.05;;;22.50;99.90;;;;;;5029474;28;20022;-78
2023/07/11 04:00:24;;;;;;;19.42;11.27;;;22.90;99.90;;;;;;5025141;28;20029;-78
2023/07/11 04:02:50;;;;;;;19.02;12.15;;;23.20;99.90;;;;;;5019583;28;20038;-77
2023/07/11 04:05:16;;;;;;;21.60;10.98;;;23.70;99.90;;;;;;5003786;28;20084;-79
2023/07/11 04:07:42;;;;;;;20.77;10.63;;;24.00;99.90;;;;;;5031634;28;20467;-78
2023/07/11 04:10:08;;;;;;;20.27;11.07;;;24.00;99.90;;;;;;5032821;28;20455;-79
2023/07/11 04:12:34;;;;;;;22.10;11.13;;;24.30;99.90;;;;;;5015128;28;20025;-77
2023/07/11 04:15:00;;;;;;;22.63;11.38;;;24.80;99.90;;;;;;5032686;28;20022;-78
2023/07/11 04:17:27;;;;;;;17.63;10.68;;;24.90;99.90;;;;;;5015428;28;20030;-79
2023/07/11 04:19:53;;;;;;;20.60;11.55;;;25.20;99.90;;;;;;5032341;28;20028;-78
2023/07/11 04:22:19;;;;;;;20.05;10.60;;;25.10;99.90;;;;;;5032906;28;20038;-78
2023/07/11 04:24:45;;;;;;;17.65;11.18;;;24.90;99.90;;;;;;5002202;28;20122;-78
2023/07/11 04:27:11;;;;;;;21.38;11.35;;;24.60;99.90;;;;;;4997034;28;20464;-77
2023/07/11 04:29:36;;;;;;;19.23;11.93;;;24.90;99.90;;;;;;5017249;28;20376;-78
2023/07/11 04:32:03;;;;;;;17.13;10.90;;;25.20;99.90;;;;;;5015043;28;20029;-78
2023/07/11 04:34:28;;;;;;;18.90;11.02;;;26.00;99.90;;;;;;5032853;28;20048;-78
2023/07/11 04:36:54;;;;;;;24.10;10.95;;;26.70;99.90;;;;;;5028797;28;20026;-79
2023/07/11 04:39:20;;;;;;;22.10;9.45;;;27.20;99.90;;;;;;5015733;28;20052;-79
2023/07/11 04:41:46;;;;;;;17.25;9.73;;;27.60;99.90;;;;;;5014931;28;20037;-79
2023/07/11 04:44:12;;;;;;;19.40;10.57;;;27.30;98.90;;;;;;5027486;28;20033;-79
2023/07/11 04:46:38;;;;;;;16.80;9.82;;;27.90;98.80;;;;;;5031629;28;20021;-78
2023/07/11 04:49:04;;;;;;;17.70;10.70;;;28.30;98.00;;;;;;5014815;28;20060;-78
2023/07/11 04:51:30;;;;;;;20.38;10.30;;;28.50;96.80;;;;;;5032079;28;20021;-78
2023/07/11 04:53:56;;;;;;;17.70;10.82;;;29.10;96.80;;;;;;5033469;28;20467;-78
2023/07/11 04:56:22;;;;;;;16.02;10.05;;;29.40;96.10;;;;;;5001051;28;20080;-79
2023/07/11 04:58:48;;;;;;;18.08;10.68;;;29.90;94.90;;;;;;5032920;28;20456;-79
2023/07/11 05:01:16;;;;;;;15.15;10.10;;;29.80;93.90;;;;;;5036075;28;20029;-79
2023/07/11 05:03:44;;;;;;;15.68;9.18;;;29.80;93.40;;;;;;5032121;28;20088;-79
2023/07/11 05:06:12;;;;;;;16.70;10.20;;;29.10;92.70;;;;;;5030504;28;20030;-79
2023/07/11 05:08:39;;;;;;;17.23;9.65;;;28.50;92.10;;;;;;5032070;28;20655;-78
2023/07/11 05:11:12;;;;;;;14.95;9.73;;;28.00;91.90;;;;;;5016889;28;20025;-78
2023/07/11 05:13:39;;;;;;;18.95;10.00;;;27.90;92.00;;;;;;5024066;28;20086;-78
2023/07/11 05:16:11;;;;;;;16.55;9.77;;;27.90;92.70;;;;;;5036100;28;20017;-80
2023/07/11 05:18:40;;;;;;;17.30;10.93;;;27.70;93.70;;;;;;5035696;28;20037;-79
2023/07/11 05:21:11;;;;;;;18.10;10.15;;;27.70;94.50;;;;;;5025324;28;20034;-79
2023/07/11 05:23:37;;;;;;;19.43;10.77;;;27.70;94.60;;;;;;5029211;28;20033;-79
2023/07/11 05:26:04;;;;;;;19.40;10.23;;;27.60;95.20;;;;;;5022874;28;20018;-78
2023/07/11 05:28:31;;;;;;;18.50;10.27;;;27.70;94.90;;;;;;5035376;28;20022;-80
2023/07/11 05:30:59;;;;;;;19.45;10.50;;;27.70;94.30;;;;;;5022686;28;20152;-78
2023/07/11 05:33:25;;;;;;;18.77;11.18;;;27.80;94.30;;;;;;5016663;28;20040;-78
2023/07/11 05:38:43;;;;;;;17.63;10.50;;;27.80;94.90;;;;;;5021075;28;20034;-78
2023/07/11 05:41:09;;;;;;;17.02;10.57;;;28.00;93.70;;;;;;5015839;28;20045;-79
2023/07/11 05:43:35;;;;;;;17.23;10.10;;;28.10;94.20;;;;;;5023052;28;20045;-77
2023/07/11 05:46:01;;;;;;;20.65;10.98;;;28.20;94.50;;;;;;5014882;28;20117;-78
2023/07/11 05:48:26;;;;;;;16.17;10.45;;;28.10;94.20;;;;;;5015601;28;20026;-80
2023/07/11 05:50:59;;;;;;;23.55;10.77;;;28.20;94.00;;;;;;5018176;28;20084;-78
2023/07/11 05:53:27;;;;;;;18.70;10.10;;;28.30;93.80;;;;;;5021095;28;20034;-78
2023/07/11 05:55:53;;;;;;;18.58;11.65;;;28.50;94.60;;;;;;5027414;28;20018;-78
2023/07/11 05:58:19;;;;;;;15.75;10.60;;;28.60;93.80;;;;;;5022262;28;20033;-79
2023/07/11 06:00:44;;;;;;;19.48;10.32;;;28.60;94.20;;;;;;5015466;28;20022;-78
2023/07/11 06:03:10;;;;;;;19.60;11.70;;;28.40;93.60;;;;;;5016132;28;20040;-79
2023/07/11 06:05:36;;;;;;;18.02;11.18;;;27.90;93.80;;;;;;5016664;28;20376;-77
2023/07/11 06:08:02;;;;;;;17.15;10.50;;;28.00;93.50;;;;;;5014755;28;20105;-81
2023/07/11 06:10:28;;;;;;;17.90;10.13;;;28.50;95.00;;;;;;5020126;28;20026;-80
2023/07/11 06:12:54;;;;;;;18.90;11.15;;;28.70;94.30;;;;;;5027123;28;20498;-78
2023/07/11 06:15:20;;;;;;;27.15;12.63;;;28.30;93.00;;;;;;5034487;28;20017;-79
2023/07/11 06:17:46;;;;;;;18.98;11.45;;;28.30;93.90;;;;;;5027756;28;20030;-79
2023/07/11 06:20:12;;;;;;;31.05;11.77;;;28.30;94.00;;;;;;5024934;28;20080;-80
2023/07/11 06:22:37;;;;;;;20.98;11.82;;;28.00;93.40;;;;;;5007570;28;20488;-81
2023/07/11 06:25:03;;;;;;;22.35;12.77;;;28.10;93.50;;;;;;5025021;28;20475;-80
2023/07/11 06:27:30;;;;;;;21.13;11.68;;;28.40;93.70;;;;;;5033767;28;20112;-80
2023/07/11 06:29:56;;;;;;;28.67;11.50;;;28.40;93.40;;;;;;5013570;28;20022;-81
2023/07/11 06:32:22;;;;;;;23.52;11.82;;;28.50;93.30;;;;;;5006685;28;20041;-80
2023/07/11 06:34:47;;;;;;;20.75;12.70;;;28.10;93.00;;;;;;5014184;28;20500;-81
2023/07/11 06:37:14;;;;;;;22.58;11.95;;;28.30;94.10;;;;;;5013777;28;20021;-79
2023/07/11 06:39:40;;;;;;;19.05;11.55;;;28.60;93.50;;;;;;5014803;28;20042;-79
2023/07/11 06:42:06;;;;;;;26.08;11.77;;;28.80;93.60;;;;;;5017051;28;20407;-79
2023/07/11 06:44:35;;;;;;;18.48;11.48;;;28.60;94.70;;;;;;4981242;28;20038;-79
2023/07/11 06:47:01;;;;;;;21.70;11.80;;;28.90;94.60;;;;;;5025012;28;20469;-79
2023/07/11 06:49:27;;;;;;;21.60;12.23;;;29.00;94.60;;;;;;5034461;28;20113;-79
2023/07/11 06:51:52;;;;;;;21.65;12.32;;;28.80;93.90;;;;;;5034861;28;20025;-78
2023/07/11 06:54:18;;;;;;;22.58;11.40;;;28.70;94.50;;;;;;5030991;28;20026;-80
2023/07/11 06:56:44;;;;;;;18.13;10.10;;;28.70;94.10;;;;;;5036930;28;20041;-80
2023/07/11 06:59:12;;;;;;;23.83;11.18;;;28.70;93.90;;;;;;5033617;28;20017;-79
2023/07/11 07:01:37;;;;;;;24.90;12.25;;;28.80;94.50;;;;;;5021270;28;20187;-79
2023/07/11 07:04:03;;;;;;;27.60;12.27;;;28.80;94.30;;;;;;5016676;28;20144;-80
2023/07/11 07:06:29;;;;;;;27.35;13.40;;;29.10;94.40;;;;;;5016649;28;20022;-80
2023/07/11 07:08:55;;;;;;;25.88;13.15;;;29.10;94.50;;;;;;5033275;28;20113;-79
2023/07/11 07:11:21;;;;;;;18.00;12.43;;;29.00;94.30;;;;;;5028670;28;20463;-80
2023/07/11 07:13:49;;;;;;;20.50;12.52;;;29.10;94.10;;;;;;5016554;28;20048;-78
2023/07/11 07:16:15;;;;;;;18.70;13.52;;;28.50;94.10;;;;;;5002235;28;20022;-78
2023/07/11 07:18:43;;;;;;;17.25;12.23;;;29.00;94.40;;;;;;5012917;28;20045;-78
2023/07/11 07:21:15;;;;;;;23.50;12.77;;;29.20;94.60;;;;;;5003783;28;20124;-80
2023/07/11 07:23:41;;;;;;;28.35;13.00;;;29.40;93.70;;;;;;5009577;28;20152;-80
2023/07/11 07:26:07;;;;;;;20.38;11.13;;;29.40;93.90;;;;;;5028894;28;20018;-78
2023/07/11 07:28:34;;;;;;;18.17;9.98;;;29.70;94.80;;;;;;5017447;28;20498;-79
2023/07/11 07:31:03;;;;;;;14.95;10.88;;;29.90;92.60;;;;;;5025524;28;20513;-79
2023/07/11 07:33:28;;;;;;;15.80;8.90;;;29.90;91.70;;;;;;5009174;28;20447;-78
2023/07/11 07:36:05;;;;;;;15.07;9.82;;;30.20;92.00;;;;;;5013038;28;20038;-78
2023/07/11 07:38:32;;;;;;;15.88;9.98;;;30.60;92.50;;;;;;5021078;28;20488;-80
2023/07/11 07:41:01;;;;;;;15.27;9.98;;;30.60;92.50;;;;;;5027369;28;20052;-78
2023/07/11 07:43:28;;;;;;;73.70;27.80;;;30.80;93.80;;;;;;5021430;28;20038;-78
2023/07/11 07:45:56;;;;;;;15.85;8.48;;;30.90;91.80;;;;;;5034514;28;20010;-78
2023/07/11 07:48:22;;;;;;;13.07;7.35;;;31.10;91.60;;;;;;5036122;28;20065;-79
2023/07/11 07:50:48;;;;;;;38.63;17.23;;;31.10;90.00;;;;;;5015466;28;20024;-79
2023/07/11 07:53:16;;;;;;;21.15;10.35;;;30.80;92.40;;;;;;5023555;28;20037;-78
2023/07/11 07:55:42;;;;;;;13.10;8.60;;;31.20;91.80;;;;;;5014105;28;20029;-80
2023/07/11 07:58:13;;;;;;;12.43;7.68;;;31.40;92.10;;;;;;5014026;28;20032;-79
2023/07/11 08:00:40;;;;;;;17.40;7.45;;;31.40;90.40;;;;;;5003786;28;20456;-81
2023/07/11 08:03:07;;;;;;;14.45;7.00;;;31.50;91.50;;;;;;5017248;28;20025;-78
2023/07/11 08:05:35;;;;;;;15.50;7.07;;;31.30;89.70;;;;;;5022541;28;20026;-80
2023/07/11 08:08:01;;;;;;;18.35;7.25;;;31.20;89.50;;;;;;5013492;28;20103;-80
2023/07/11 08:10:27;;;;;;;14.05;7.75;;;31.50;88.90;;;;;;5019039;28;20531;-77
2023/07/11 08:12:52;;;;;;;14.45;6.38;;;31.60;90.30;;;;;;5025258;28;20034;-76
2023/07/11 08:15:18;;;;;;;22.77;6.93;;;31.70;90.20;;;;;;5027233;28;20025;-77
2023/07/11 08:17:46;;;;;;;16.50;6.57;;;31.80;90.60;;;;;;5034152;28;20040;-79
2023/07/11 08:20:12;;;;;;;17.05;6.25;;;;;;;;;;5024718;28;20019;-77
2023/07/11 08:22:38;;;;;;;17.77;6.00;;;32.00;99.90;;;;;;5011569;28;20030;-80
2023/07/11 08:25:05;;;;;;;14.02;6.30;;;;;;;;;;5028888;28;20020;-79
2023/07/11 08:27:31;;;;;;;14.98;6.53;;;32.20;86.90;;;;;;5036056;28;20030;-79
2023/07/11 08:29:57;;;;;;;13.10;6.35;;;32.20;87.70;;;;;;5030561;28;20026;-77
2023/07/11 08:32:23;;;;;;;12.95;6.00;;;32.30;87.80;;;;;;5023908;28;20113;-80
2023/07/11 08:34:49;;;;;;;17.27;7.20;;;32.50;87.80;;;;;;5020801;28;20054;-80
2023/07/11 08:37:15;;;;;;;10.35;5.25;;;32.30;85.60;;;;;;5013931;28;20026;-80
2023/07/11 08:39:42;;;;;;;18.73;6.40;;;;;;;;;;5023184;28;20030;-83
2023/07/11 08:42:17;;;;;;;13.35;6.60;;;;;;;;;;5013045;28;20115;-79
2023/07/11 08:45:03;;;;;;;12.70;5.40;;;32.60;85.60;;;;;;5014605;28;20029;-81
2023/07/11 08:48:11;;;;;;;9.43;5.35;;;32.80;85.30;;;;;;5027445;28;20045;-79
2023/07/11 08:51:07;;;;;;;8.65;5.20;;;32.80;86.00;;;;;;4970463;28;20042;-79
2023/07/11 08:53:39;;;;;;;16.35;5.38;;;32.80;85.70;;;;;;4945386;28;20061;-79
2023/07/11 08:56:19;;;;;;;10.50;5.68;;;32.70;87.10;;;;;;4966890;28;20142;-81
2023/07/11 08:58:48;;;;;;;9.18;5.00;;;32.90;88.00;;;;;;4966512;28;20040;-81
2023/07/11 09:01:30;;;;;;;10.23;5.50;;;32.70;86.40;;;;;;4971820;28;20073;-81
2023/07/11 09:03:59;;;;;;;17.02;6.78;;;33.00;85.20;;;;;;4980619;28;20034;-81
2023/07/11 09:06:33;;;;;;;14.35;6.00;;;33.10;90.10;;;;;;4974448;28;20027;-77
2023/07/11 09:09:00;;;;;;;20.52;5.68;;;33.10;89.60;;;;;;4967921;28;20050;-78
2023/07/11 09:11:43;;;;;;;11.65;5.00;;;33.10;87.60;;;;;;4955825;28;20031;-78
2023/07/11 09:14:23;;;;;;;12.02;5.15;;;33.10;87.70;;;;;;4988382;28;20528;-81
2023/07/11 09:17:11;;;;;;;13.95;6.03;;;32.90;86.90;;;;;;4992512;28;20074;-79
2023/07/11 09:19:39;;;;;;;13.60;5.68;;;33.10;89.70;;;;;;4971353;28;20436;-79
2023/07/11 09:22:42;;;;;;;15.48;5.85;;;33.10;88.90;;;;;;4990423;28;20468;-80
2023/07/11 09:25:23;;;;;;;12.02;5.32;;;33.40;86.10;;;;;;4966449;28;20043;-80
2023/07/11 09:27:54;;;;;;;10.33;5.00;;;33.20;87.70;;;;;;5001290;28;20558;-79
2023/07/11 09:30:48;;;;;;;9.98;5.15;;;33.30;85.20;;;;;;5012010;28;20042;-78
2023/07/11 09:33:34;;;;;;;11.30;5.60;;;33.20;86.70;;;;;;5011821;28;20037;-81
2023/07/11 09:36:03;;;;;;;13.23;5.45;;;33.30;85.50;;;;;;4998914;28;20047;-80
2023/07/11 09:38:34;;;;;;;12.75;5.13;;;33.10;88.30;;;;;;5000784;28;20105;-80
2023/07/11 09:41:14;;;;;;;11.68;5.70;;;33.10;87.00;;;;;;5011173;28;20047;-78
2023/07/11 09:43:40;;;;;;;15.15;6.25;;;33.20;88.10;;;;;;5012517;28;20468;-80
2023/07/11 09:46:14;;;;;;;9.73;5.80;;;33.10;88.70;;;;;;5011652;28;20050;-80
2023/07/11 09:48:42;;;;;;;9.93;5.07;;;33.00;86.70;;;;;;5011705;28;20480;-78
2023/07/11 09:51:36;;;;;;;9.57;5.18;;;33.00;87.50;;;;;;4990339;28;20033;-79
2023/07/11 09:54:04;;;;;;;13.18;5.80;;;33.20;89.90;;;;;;5011170;28;20387;-79
2023/07/11 09:56:43;;;;;;;11.15;5.40;;;33.10;89.60;;;;;;5011786;28;20487;-80
2023/07/11 09:59:12;;;;;;;10.05;5.38;;;33.40;86.10;;;;;;5011959;28;20034;-79
2023/07/11 10:01:37;;;;;;;9.70;5.10;;;33.40;87.40;;;;;;5015311;28;20026;-79
2023/07/11 10:04:12;;;;;;;7.88;5.25;;;33.50;87.10;;;;;;5015434;28;20386;-78
2023/07/11 10:06:41;;;;;;;9.23;4.70;;;33.40;87.40;;;;;;5015443;28;20073;-78
2023/07/11 10:09:27;;;;;;;9.10;5.35;;;33.40;84.90;;;;;;5013971;28;20033;-78
2023/07/11 10:11:54;;;;;;;11.00;5.82;;;33.30;89.80;;;;;;5024069;28;20109;-79
2023/07/11 10:14:23;;;;;;;12.75;5.28;;;33.30;85.70;;;;;;5014655;28;20045;-78
2023/07/11 10:16:50;;;;;;;10.98;5.45;;;33.30;87.80;;;;;;5015347;28;20029;-78
2023/07/11 10:19:17;;;;;;;12.13;5.30;;;33.40;86.90;;;;;;4998573;28;20080;-79
2023/07/11 10:21:51;;;;;;;11.45;5.53;;;33.50;86.60;;;;;;5016183;28;20121;-77
2023/07/11 10:24:23;;;;;;;11.25;5.82;;;33.50;86.70;;;;;;5019918;28;20053;-78
2023/07/11 10:27:02;;;;;;;10.85;5.82;;;33.50;87.80;;;;;;5035763;28;20036;-77
2023/07/11 10:29:40;;;;;;;16.75;5.90;;;33.50;86.90;;;;;;5023327;28;20018;-79
2023/07/11 10:32:27;;;;;;;12.73;5.78;;;33.60;90.50;;;;;;5028282;28;20553;-81
2023/07/11 10:34:56;;;;;;;9.35;5.40;;;33.70;89.50;;;;;;5024626;28;20073;-77
2023/07/11 10:37:39;;;;;;;10.95;5.88;;;33.70;88.60;;;;;;5019960;28;20041;-80
2023/07/11 10:40:32;;;;;;;9.18;5.53;;;33.30;87.60;;;;;;5015079;28;20400;-81
2023/07/11 10:43:15;;;;;;;10.55;5.15;;;33.30;87.10;;;;;;5012104;28;20029;-77
2023/07/11 10:45:45;;;;;;;12.07;5.82;;;33.30;88.30;;;;;;5019515;28;20026;-79
2023/07/11 10:48:40;;;;;;;10.48;5.30;;;33.50;88.60;;;;;;5021883;28;20026;-80
2023/07/11 10:51:27;;;;;;;12.60;5.57;;;33.60;90.00;;;;;;5025652;28;20030;-80
2023/07/11 10:53:59;;;;;;;12.40;5.97;;;33.50;87.10;;;;;;5013950;28;20038;-79
2023/07/11 10:56:30;;;;;;;14.15;5.53;;;33.70;86.70;;;;;;5014985;28;20037;-81
2023/07/11 10:58:57;;;;;;;17.20;4.90;;;33.80;89.50;;;;;;5014368;28;20034;-79
2023/07/11 11:01:29;;;;;;;10.50;5.53;;;33.60;90.10;;;;;;5011489;28;20549;-79
2023/07/11 11:04:23;;;;;;;8.68;4.75;;;33.80;90.20;;;;;;5013469;28;20038;-80
2023/07/11 11:07:17;;;;;;;11.32;5.03;;;33.80;86.90;;;;;;5008114;28;20509;-79
2023/07/11 11:10:08;;;;;;;10.38;5.75;;;33.70;87.50;;;;;;5014276;28;20092;-78
2023/07/11 11:12:38;;;;;;;10.50;5.82;;;33.70;86.30;;;;;;5020665;28;20037;-80
2023/07/11 11:15:13;;;;;;;10.45;5.50;;;33.30;86.80;;;;;;5015688;28;20045;-79
2023/07/11 11:18:13;;;;;;;33.97;11.18;;;33.60;84.80;;;;;;5034647;28;20033;-81
2023/07/11 11:21:24;;;;;;;10.25;5.63;;;33.50;86.30;;;;;;5014808;28;20568;-80
2023/07/11 11:24:00;;;;;;;12.95;6.38;;;33.50;84.50;;;;;;5025787;28;20067;-79
2023/07/11 11:26:49;;;;;;;45.28;14.27;;;33.50;86.70;;;;;;5032489;28;20025;-81
2023/07/11 11:29:21;;;;;;;6.30;4.68;;;33.70;89.10;;;;;;5033461;28;20033;-76
2023/07/11 11:32:08;;;;;;;9.02;5.15;;;33.70;90.50;;;;;;5034434;28;20052;-77
2023/07/11 11:34:57;;;;;;;14.10;6.32;;;33.70;87.90;;;;;;5034066;28;20483;-78
2023/07/11 11:37:48;;;;;;;9.63;5.70;;;33.70;88.10;;;;;;5033794;28;20391;-77
2023/07/11 11:40:34;;;;;;;;;;;33.90;86.90;;;;;;5034659;28;20057;-75
2023/07/11 11:43:09;;;;;;;11.75;6.10;;;33.70;88.50;;;;;;5033195;28;20007;-79
2023/07/11 11:45:36;;;;;;;10.90;6.20;;;33.80;88.50;;;;;;5033226;28;20048;-76
2023/07/11 11:48:04;;;;;;;14.30;5.93;;;33.70;87.20;;;;;;5033821;28;20017;-80
2023/07/11 11:50:33;;;;;;;12.38;6.00;;;33.70;85.20;;;;;;5034020;28;20155;-78
2023/07/11 11:53:46;;;;;;;9.65;5.47;;;33.70;86.90;;;;;;5033338;28;20033;-78
2023/07/11 11:56:20;;;;;;;9.52;5.50;;;33.70;90.20;;;;;;4975528;28;20043;-77
2023/07/11 11:58:59;;;;;;;9.73;5.72;;;33.80;87.40;;;;;;4992300;28;20500;-78
2023/07/11 12:01:37;;;;;;;14.00;6.35;;;33.90;90.30;;;;;;4991424;28;20065;-79
2023/07/11 12:04:44;;;;;;;14.10;6.18;;;34.10;88.00;;;;;;4988264;28;20520;-79
2023/07/11 12:07:12;;;;;;;14.55;6.43;;;34.00;89.00;;;;;;4961085;28;20030;-76
2023/07/11 12:09:48;;;;;;;10.77;5.85;;;34.20;89.90;;;;;;4979405;28;20027;-78
2023/07/11 12:12:18;;;;;;;14.73;6.13;;;34.10;87.60;;;;;;4973062;28;20043;-77
2023/07/11 12:14:53;;;;;;;16.60;7.30;;;34.00;86.40;;;;;;4986590;28;20404;-78
2023/07/11 12:17:34;;;;;;;11.35;5.65;;;33.90;87.90;;;;;;4979037;28;20056;-76
2023/07/11 12:20:00;;;;;;;10.50;5.95;;;;;;;;;;4976748;28;20142;-78
2023/07/11 12:22:32;;;;;;;14.85;5.38;;;34.30;89.70;;;;;;4966660;28;20110;-79
2023/07/11 12:25:32;;;;;;;11.40;5.65;;;34.30;86.90;;;;;;4971881;28;20034;-78
2023/07/11 12:28:02;;;;;;;11.30;6.20;;;34.20;88.50;;;;;;4896290;29;20036;-78
2023/07/11 12:30:40;;;;;;;10.95;5.93;;;34.10;86.60;;;;;;4923017;29;20071;-76
2023/07/11 12:33:39;;;;;;;8.55;6.10;;;34.00;89.30;;;;;;4936109;28;20051;-78
2023/07/11 12:36:33;;;;;;;11.25;6.07;;;33.90;88.00;;;;;;4965509;28;20134;-80
2023/07/11 12:39:24;;;;;;;9.68;5.75;;;33.90;88.00;;;;;;4972330;28;20051;-77
2023/07/11 12:41:50;;;;;;;10.68;4.93;;;34.00;89.00;;;;;;4967411;28;20046;-76
2023/07/11 12:44:17;;;;;;;9.88;5.53;;;34.00;88.10;;;;;;4971368;28;20073;-76
2023/07/11 12:46:51;;;;;;;10.43;6.15;;;34.00;88.60;;;;;;4962588;28;20409;-77
2023/07/11 12:49:26;;;;;;;9.75;5.47;;;34.10;90.30;;;;;;4961554;28;20070;-80
2023/07/11 12:52:02;;;;;;;8.85;5.78;;;33.90;87.80;;;;;;4953073;28;20102;-79